Time;durP1;ratioP1;P1;durP2;ratioP2;P2;SDS_P1;SDS_P2;PMS_P1;PMS_P2;Temp;Humidity;BMP_temperature;BMP_pressure;BME280_temperature;BME280_humidity;BME280_pressure;Samples;Min_cycle;Max_cycle;Signal;HPM_P1;HPM_P2
2023/06/27 00:01:46;;;;;;;16.98;7.05;;;;;;;19.75;100.00;101219.81;5054863;28;20040;-74
2023/06/27 00:07:33;;;;;;;14.15;6.55;;;;;;;20.21;100.00;101290.84;5054668;28;20448;-74
2023/06/27 00:13:20;;;;;;;17.05;7.07;;;;;;;19.88;100.00;101237.28;5057949;28;20155;-75
2023/06/27 00:19:08;;;;;;;19.58;7.40;;;;;;;19.72;100.00;101220.81;5042453;28;20048;-72
2023/06/27 00:24:55;;;;;;;19.08;7.95;;;;;;;19.77;100.00;101279.94;5054778;28;20031;-72
2023/06/27 00:27:21;;;;;;;18.42;7.40;;;;;;;19.59;100.00;101231.75;5052511;28;20403;-73
2023/06/27 00:29:47;;;;;;;21.85;7.75;;;;;;;19.44;100.00;101220.38;5053961;28;20025;-73
2023/06/27 00:32:12;;;;;;;21.02;7.75;;;;;;;19.65;100.00;101281.34;5054072;28;20025;-72
2023/06/27 00:34:38;;;;;;;17.35;7.90;;;;;;;19.78;100.00;101279.06;5053287;28;20025;-74
2023/06/27 00:40:24;;;;;;;26.05;8.15;;;;;;;19.29;100.00;101230.50;5054052;28;20470;-73
2023/06/27 00:46:24;;;;;;;29.90;7.95;;;;;;;19.42;100.00;101227.34;5053612;28;20117;-72
2023/06/27 00:48:50;;;;;;;26.77;8.30;;;;;;;19.58;100.00;101209.44;5052451;28;20087;-72
2023/06/27 00:51:15;;;;;;;24.15;8.57;;;;;;;19.62;100.00;101198.91;5052453;28;20031;-73
2023/06/27 00:53:41;;;;;;;28.77;8.63;;;;;;;19.21;100.00;101150.03;5052850;28;20033;-72
2023/06/27 00:59:28;;;;;;;25.48;7.13;;;;;;;19.17;100.00;101135.63;5053855;28;20064;-73
2023/06/27 01:05:17;;;;;;;24.15;8.05;;;;;;;19.44;100.00;101166.19;5053367;28;20035;-74
2023/06/27 01:08:15;;;;;;;26.20;8.02;;;;;;;19.57;100.00;101169.06;5051500;28;20120;-73
2023/06/27 01:14:06;;;;;;;33.47;7.83;;;;;;;19.07;100.00;101121.47;5053192;28;20028;-72
2023/06/27 01:16:35;;;;;;;29.13;7.75;;;;;;;19.01;100.00;101118.22;5052808;28;20056;-73
2023/06/27 01:19:02;;;;;;;28.20;7.65;;;;;;;18.88;100.00;101119.69;5048239;28;20041;-72
2023/06/27 01:21:30;;;;;;;25.60;7.72;;;;;;;19.12;100.00;101094.56;5033079;28;20044;-73
2023/06/27 01:27:17;;;;;;;29.17;8.43;;;;;;;19.29;100.00;101137.66;5033322;28;20494;-73
2023/06/27 01:33:18;;;;;;;38.97;9.48;;;;;;;19.16;100.00;101106.41;5033145;28;20040;-75
2023/06/27 01:35:56;;;;;;;30.08;8.77;;;;;;;19.31;100.00;101115.19;5031609;28;20033;-72
2023/06/27 01:38:32;;;;;;;26.35;8.20;;;;;;;19.02;100.00;101067.50;5029459;28;20034;-73
2023/06/27 01:40:59;;;;;;;29.05;8.35;;;;;;;18.97;100.00;101017.91;5032845;28;20091;-72
2023/06/27 01:43:27;;;;;;;29.02;8.90;;;;;;;18.80;100.00;101010.94;5032780;28;20510;-73
2023/06/27 01:45:53;;;;;;;24.23;8.30;;;;;;;19.15;100.00;101057.50;5031246;28;20120;-73
2023/06/27 01:48:20;;;;;;;29.13;8.30;;;;;;;18.99;100.00;101036.72;5032075;28;20032;-72
2023/06/27 01:50:45;;;;;;;31.45;8.43;;;;;;;18.90;100.00;100986.44;5032583;28;20383;-73
2023/06/27 01:53:11;;;;;;;20.92;8.02;;;;;;;19.09;100.00;101004.47;5030633;28;20036;-74
2023/06/27 01:58:58;;;;;;;21.92;8.13;;;;;;;19.09;100.00;100955.47;5032632;28;20079;-72
2023/06/27 02:01:24;;;;;;;26.35;8.25;;;;;;;18.88;100.00;100965.03;5030936;28;20423;-73
2023/06/27 02:03:49;;;;;;;24.05;8.60;;;;;;;18.62;100.00;100944.78;5032237;28;20022;-73
2023/06/27 02:06:15;;;;;;;27.08;8.93;;;;;;;18.59;100.00;100942.34;5032384;28;20032;-73
2023/06/27 02:08:41;;;;;;;27.90;8.13;;;;;;;18.83;100.00;100915.47;5047438;28;20025;-74
2023/06/27 02:11:06;;;;;;;27.52;8.13;;;;;;;19.15;100.00;100969.81;5031393;28;20053;-73
2023/06/27 02:13:37;;;;;;;23.80;8.38;;;;;;;18.71;100.00;100898.00;5031302;28;20022;-73
2023/06/27 02:16:02;;;;;;;23.67;8.43;;;;;;;19.03;100.00;100960.94;5047792;28;20036;-73
2023/06/27 02:21:56;;;;;;;19.65;8.00;;;;;;;18.37;100.00;100882.38;5041802;28;20128;-73
2023/06/27 02:24:22;;;;;;;25.30;8.68;;;;;;;18.52;100.00;100857.72;5051568;28;20115;-72
2023/06/27 02:26:47;;;;;;;19.60;8.45;;;;;;;18.54;100.00;100886.81;5050632;28;20086;-73
2023/06/27 02:32:34;;;;;;;21.48;7.93;;;;;;;18.18;100.00;100755.41;5052479;28;20024;-73
2023/06/27 02:35:00;;;;;;;20.50;8.82;;;;;;;18.82;100.00;100848.50;5051635;28;20024;-73
2023/06/27 02:40:47;;;;;;;21.20;8.80;;;;;;;18.58;100.00;100782.72;5052393;28;20082;-73
2023/06/27 02:43:12;;;;;;;22.52;8.77;;;;;;;18.47;100.00;100759.22;5054402;28;20445;-73
2023/06/27 02:45:38;;;;;;;26.00;9.63;;;;;;;18.43;100.00;100735.34;5037795;28;20104;-73
2023/06/27 02:51:25;;;;;;;31.38;10.20;;;;;;;17.80;100.00;100680.00;5056190;28;20055;-72
2023/06/27 02:53:50;;;;;;;28.83;9.50;;;;;;;18.24;100.00;100710.53;5054984;28;20123;-72
2023/06/27 02:56:16;;;;;;;27.00;9.20;;;;;;;18.58;100.00;100716.56;5054205;28;20103;-72
2023/06/27 02:58:41;;;;;;;25.75;8.80;;;;;;;18.80;100.00;100768.72;5055784;28;20118;-73
2023/06/27 03:01:07;;;;;;;25.08;8.93;;;;;;;18.78;100.00;100769.69;5055431;28;20033;-72
2023/06/27 03:03:33;;;;;;;22.30;8.95;;;;;;;18.64;100.00;100720.59;5055257;28;20033;-72
2023/06/27 03:06:02;;;;;;;24.70;8.55;;;;;;;18.26;100.00;100673.50;5054267;28;20021;-73
2023/06/27 03:08:29;;;;;;;27.00;8.73;;;;;;;18.78;100.00;100725.88;5055156;28;20027;-73
2023/06/27 03:14:17;;;;;;;29.38;9.07;;;;;;;18.93;100.00;100789.56;5055666;28;20067;-72
2023/06/27 03:16:43;;;;;;;26.75;8.32;;;;;;;19.06;100.00;100803.50;5053820;28;20075;-73
2023/06/27 03:19:08;;;;;;;24.25;8.93;;;;;;;18.78;100.00;100733.63;5053491;28;20025;-73
2023/06/27 03:21:34;;;;;;;22.15;8.98;;;;;;;18.72;100.00;100750.22;5055255;28;20099;-74
2023/06/27 03:27:22;;;;;;;25.15;9.55;;;;;;;18.60;100.00;100829.84;5055648;28;20044;-74
2023/06/27 03:29:47;;;;;;;24.13;9.68;;;;;;;18.93;100.00;100812.78;5037020;28;20068;-76
2023/06/27 03:32:13;;;;;;;22.48;9.13;;;;;;;18.91;100.00;100814.59;5055091;28;20060;-75
2023/06/27 03:34:41;;;;;;;27.08;10.00;;;;;;;18.56;100.00;100805.97;5055584;28;20031;-76
2023/06/27 03:40:28;;;;;;;26.20;9.82;;;;;;;18.23;100.00;100708.84;5056088;28;20048;-76
2023/06/27 03:42:55;;;;;;;26.60;9.90;;;;;;;18.82;100.00;100812.44;5054267;28;20467;-75
2023/06/27 03:45:21;;;;;;;29.25;10.60;;;;;;;18.39;100.00;100805.06;5054237;28;20021;-74
2023/06/27 03:47:47;;;;;;;34.47;11.00;;;;;;;18.89;100.00;100824.97;5054923;28;20106;-73
2023/06/27 03:53:34;;;;;;;28.27;9.80;;;;;;;19.07;100.00;100837.88;5054264;28;20171;-75
2023/06/27 03:56:01;;;;;;;25.13;10.57;;;;;;;19.32;100.00;100836.56;5053318;28;20127;-73
2023/06/27 03:58:27;;;;;;;25.45;10.95;;;;;;;19.21;100.00;100825.13;5054742;28;20427;-75
2023/06/27 04:00:55;;;;;;;27.30;10.27;;;;;;;18.96;100.00;100785.09;5054446;28;20029;-75
2023/06/27 04:06:43;;;;;;;25.58;10.45;;;;;;;19.16;100.00;100778.94;5055652;28;20047;-74
2023/06/27 04:12:30;;;;;;;;;;;;;;;19.68;100.00;100867.44;5055545;28;20178;-75
2023/06/27 04:14:55;;;;;;;20.02;10.40;;;;;;;19.43;100.00;100833.50;5036493;28;20035;-74
2023/06/27 04:17:21;;;;;;;19.27;8.27;;;;;;;20.73;100.00;100856.59;5053080;28;20055;-74
2023/06/27 04:19:46;;;;;;;21.42;10.25;;;;;;;20.49;100.00;100815.75;5054451;28;20467;-73
2023/06/27 04:25:36;;;;;;;19.08;10.32;;;;;;;20.14;100.00;100923.56;5055003;28;20043;-73
2023/06/27 04:31:25;;;;;;;21.50;10.88;;;;;;;20.01;100.00;100865.69;5053877;28;20036;-70
2023/06/27 04:33:55;;;;;;;24.70;11.25;;;;;;;20.45;100.00;100941.72;5035345;28;20035;-70
2023/06/27 04:36:24;;;;;;;21.33;10.75;;;;;;;19.91;100.00;100843.84;5053610;28;20103;-70
2023/06/27 04:38:50;;;;;;;23.92;10.60;;;;;;;20.55;100.00;100955.81;5051965;28;20475;-71
2023/06/27 04:41:15;;;;;;;24.35;11.00;;;;;;;20.20;100.00;100907.78;5053406;28;20024;-73
2023/06/27 04:43:41;;;;;;;24.15;11.07;;;;;;;20.41;100.00;100978.97;5052509;28;20372;-74
2023/06/27 04:46:06;;;;;;;21.00;11.52;;;;;;;21.09;100.00;100989.97;5042615;28;20438;-74
2023/06/27 04:48:32;;;;;;;24.05;11.98;;;;;;;20.43;100.00;100937.53;5040416;28;20024;-74
2023/06/27 04:54:18;;;;;;;24.23;11.57;;;;;;;21.00;100.00;101004.19;5053747;28;20558;-73
2023/06/27 05:00:09;;;;;;;18.13;10.98;;;;;;;20.70;100.00;101045.44;5053772;28;20078;-73
2023/06/27 05:02:34;;;;;;;25.85;12.13;;;;;;;21.05;100.00;101047.97;5035254;28;20036;-73
2023/06/27 05:05:00;;;;;;;22.80;11.45;;;;;;;21.85;100.00;101083.13;5034881;28;20029;-73
2023/06/27 05:07:25;;;;;;;17.52;10.52;;;;;;;21.37;100.00;101039.28;5051380;28;20017;-73
2023/06/27 05:09:51;;;;;;;15.82;10.52;;;;;;;21.93;100.00;101090.47;5051550;28;20060;-73
2023/06/27 05:12:16;;;;;;;20.88;10.13;;;;;;;21.82;100.00;101062.59;5053207;28;20048;-73
2023/06/27 05:14:42;;;;;;;18.15;10.75;;;;;;;21.77;100.00;101074.13;5051001;28;20032;-72
2023/06/27 05:20:28;;;;;;;17.20;10.48;;;;;;;22.38;100.00;101109.38;5053282;28;20552;-73
2023/06/27 05:22:54;;;;;;;16.05;9.90;;;;;;;22.34;100.00;101096.72;5034202;28;20049;-73
2023/06/27 05:25:19;;;;;;;15.98;10.13;;;;;;;22.56;100.00;101148.94;5052543;28;20171;-74
2023/06/27 05:27:45;;;;;;;12.32;8.90;;;;;;;22.57;100.00;101124.72;5034253;28;20472;-73
2023/06/27 05:33:32;;;;;;;14.93;7.78;;;;;;;22.12;100.00;101135.16;5053202;28;20040;-74
2023/06/27 05:35:57;;;;;;;12.25;7.68;;;;;;;23.52;100.00;101201.94;5051879;28;20033;-74
2023/06/27 05:38:22;;;;;;;13.27;8.30;;;;;;;22.63;100.00;101119.19;5051023;28;20124;-73
2023/06/27 05:40:48;;;;;;;10.90;7.72;;;;;;;23.68;100.00;101174.09;5034543;28;20453;-73
2023/06/27 05:43:14;;;;;;;11.52;6.85;;;;;;;23.39;100.00;101221.81;5050748;28;20442;-73
2023/06/27 05:45:40;;;;;;;14.13;7.47;;;;;;;24.16;100.00;101270.69;5050641;28;20033;-74
2023/06/27 05:48:05;;;;;;;14.05;7.47;;;;;;;23.35;100.00;101216.91;5051908;28;20032;-74
2023/06/27 05:50:31;;;;;;;12.07;7.30;;;;;;;23.47;100.00;101217.00;5051061;28;20056;-73
2023/06/27 05:56:18;;;;;;;12.40;7.07;;;;;;;24.63;100.00;101300.53;5052395;28;20024;-74
2023/06/27 05:58:43;;;;;;;10.63;6.65;;;;;;;24.86;100.00;101292.06;5050117;28;20029;-73
2023/06/27 06:01:09;;;;;;;12.23;6.68;;;;;;;24.53;100.00;101296.00;5050850;28;20021;-73
2023/06/27 06:06:58;;;;;;;11.77;6.82;;;;;;;24.53;100.00;101281.25;5052678;28;20126;-73
2023/06/27 06:09:24;;;;;;;8.77;5.72;;;;;;;25.16;100.00;101367.31;5052282;28;20024;-73
2023/06/27 06:11:49;;;;;;;9.55;5.40;;;;;;;24.86;100.00;101369.31;5052100;28;20483;-73
2023/06/27 06:17:36;;;;;;;11.32;5.70;;;;;;;25.25;100.00;101423.16;5051808;28;20028;-72
2023/06/27 06:20:03;;;;;;;10.23;5.15;;;;;;;24.77;100.00;101378.56;5051995;28;20029;-73
2023/06/27 06:22:31;;;;;;;8.52;5.18;;;;;;;25.91;100.00;101423.88;5050493;28;20039;-73
2023/06/27 06:24:56;;;;;;;8.95;5.20;;;;;;;25.68;100.00;101373.31;5051341;28;20394;-73
2023/06/27 06:27:21;;;;;;;8.57;5.80;;;;;;;24.89;100.00;101375.16;5050155;28;20467;-73
2023/06/27 06:29:47;;;;;;;7.80;5.30;;;;;;;26.11;100.00;101399.03;5050032;28;20025;-73
2023/06/27 06:32:12;;;;;;;10.07;6.00;;;;;;;26.33;100.00;101340.06;5051580;28;20025;-73
2023/06/27 06:34:38;;;;;;;9.95;6.28;;;;;;;24.72;100.00;101224.50;5051356;28;20036;-73
2023/06/27 06:37:03;;;;;;;10.43;5.93;;;;;;;25.98;100.00;101278.28;5051460;28;20025;-73
2023/06/27 06:39:29;;;;;;;8.98;5.47;;;;;;;26.31;100.00;101322.84;5033535;28;20056;-73
2023/06/27 06:41:55;;;;;;;9.07;5.90;;;;;;;26.96;100.00;101295.38;5051225;28;20380;-73
2023/06/27 06:44:20;;;;;;;6.80;5.63;;;;;;;26.51;100.00;101243.94;5051757;28;20068;-73
2023/06/27 06:50:07;;;;;;;6.53;5.30;;;;;;;27.14;100.00;101213.00;5051924;28;20090;-73
2023/06/27 06:52:33;;;;;;;6.65;5.82;;;;;;;26.99;100.00;101208.13;5049812;28;20021;-73
2023/06/27 06:54:58;;;;;;;7.68;5.28;;;;;;;26.64;100.00;101143.72;5049720;28;20376;-73
2023/06/27 07:00:45;;;;;;;;;;;;;;;27.63;100.00;101115.94;5052312;28;20505;-73
2023/06/27 07:03:11;;;;;;;8.60;5.30;;;;;;;27.65;100.00;101087.91;5051481;28;19913;-74
2023/06/27 07:05:36;;;;;;;7.30;4.82;;;;;;;27.09;100.00;101045.38;5050952;28;20347;-74
2023/06/27 07:08:06;;;;;;;9.20;5.70;;;;;;;27.95;100.00;101098.47;5051567;28;20035;-73
2023/06/27 07:13:53;;;;;;;;;;;;;;;27.74;100.00;101049.69;5051785;28;20052;-73
2023/06/27 07:16:18;;;;;;;5.73;4.90;;;;;;;27.93;100.00;101034.16;5051570;28;20339;-74
2023/06/27 07:18:43;;;;;;;10.07;4.60;;;;;;;28.10;100.00;100986.50;5051292;28;20306;-73
2023/06/27 07:21:09;;;;;;;5.65;4.65;;;;;;;28.16;100.00;100983.38;5051020;28;20481;-73
2023/06/27 07:23:36;;;;;;;7.13;4.18;;;;;;;28.18;100.00;100995.38;5051023;28;20032;-72
2023/06/27 07:26:01;;;;;;;8.27;4.80;;;;;;;27.66;100.00;100956.22;5049837;28;20463;-73
2023/06/27 07:28:27;;;;;;;7.20;4.57;;;;;;;28.39;100.00;101028.50;5054109;28;20060;-73
2023/06/27 07:30:52;;;;;;;8.13;4.53;;;;;;;28.27;100.00;100910.84;5053514;28;20506;-74
2023/06/27 07:36:40;;;;;;;7.80;4.28;;;;;;;27.35;100.00;100934.41;5054915;28;20461;-73
2023/06/27 07:39:05;;;;;;;6.68;4.22;;;;;;;28.57;100.00;100935.31;5053821;28;20024;-73
2023/06/27 07:41:30;;;;;;;5.53;4.07;;;;;;;28.03;100.00;100886.78;5052739;28;20116;-73
2023/06/27 07:43:56;;;;;;;5.30;4.10;;;;;;;27.95;100.00;100904.13;5054309;28;20095;-73
2023/06/27 07:49:43;;;;;;;8.10;4.20;;;;;;;29.04;100.00;100825.34;5054885;28;20085;-73
2023/06/27 07:55:30;;;;;;;6.75;4.15;;;;;;;29.70;100.00;101142.69;5054473;28;20112;-72
2023/06/27 08:01:18;;;;;;;6.72;4.20;;;;;;;28.95;100.00;101675.03;5054579;28;20485;-72
2023/06/27 08:07:05;;;;;;;4.35;3.78;;;;;;;28.89;100.00;101452.81;5054438;28;20533;-72
2023/06/27 08:09:30;;;;;;;5.60;4.32;;;;;;;29.32;100.00;101460.63;5035696;28;20029;-72
2023/06/27 08:11:55;;;;;;;6.65;4.38;;;;;;;29.47;100.00;101121.16;5054135;28;20025;-72
2023/06/27 08:14:21;;;;;;;6.28;4.18;;;;;;;28.96;100.00;100614.88;5052138;28;20035;-73
2023/06/27 08:20:08;;;;;;;4.70;3.70;;;;;;;29.74;100.00;100102.91;5053913;28;20056;-73
2023/06/27 08:25:55;;;;;;;5.20;3.72;;;;;;;30.19;100.00;99780.50;5054042;28;20456;-73
2023/06/27 08:28:21;;;;;;;4.15;3.75;;;;;;;29.84;100.00;99770.53;5035402;28;20115;-73
2023/06/27 08:30:46;;;;;;;5.85;3.95;;;;;;;29.57;100.00;100082.88;5053175;28;20094;-73
2023/06/27 08:33:12;;;;;;;4.53;3.70;;;;;;;30.35;100.00;100133.94;5053116;28;20032;-74
2023/06/27 08:35:38;;;;;;;6.22;4.18;;;;;;;29.41;100.00;100102.03;5052229;28;20028;-73
2023/06/27 08:41:26;;;;;;;7.90;3.95;;;;;;;29.70;100.00;100608.50;5054018;28;20171;-73
2023/06/27 08:47:19;;;;;;;4.45;4.05;;;;;;;30.69;100.00;100651.97;5053859;28;20052;-73
2023/06/27 08:53:09;;;;;;;5.88;3.80;;;;;;;30.57;100.00;100756.44;5053900;28;20150;-73
2023/06/27 08:55:48;;;;;;;4.22;3.78;;;;;;;30.70;100.00;100669.38;5051539;28;20028;-73
2023/06/27 08:58:20;;;;;;;5.05;4.18;;;;;;;30.95;100.00;100576.59;5053452;28;20025;-73
2023/06/27 09:04:07;;;;;;;9.27;6.85;;;;;;;31.28;100.00;100422.38;5053371;28;20035;-72
2023/06/27 09:06:33;;;;;;;5.75;4.00;;;;;;;30.30;100.00;100362.81;5053791;28;20028;-72
2023/06/27 09:08:59;;;;;;;4.70;3.85;;;;;;;31.08;100.00;100343.06;5063575;28;20116;-73
2023/06/27 09:14:46;;;;;;;7.30;4.00;;;;;;;30.88;100.00;100291.84;5057752;28;20093;-72
2023/06/27 09:20:34;;;;;;;5.43;3.80;;;;;;;30.76;100.00;100193.31;5053265;28;20078;-72
2023/06/27 09:26:21;;;;;;;5.13;4.07;;;;;;;31.92;100.00;100145.22;5033083;28;20044;-71
2023/06/27 09:28:48;;;;;;;9.90;4.13;;;;;;;32.11;100.00;100131.59;5032079;28;20030;-72
2023/06/27 09:31:16;;;;;;;4.47;3.90;;;;;;;31.57;100.00;100128.19;5032987;28;20057;-71
2023/06/27 09:37:03;;;;;;;4.68;4.20;;;;;;;31.22;100.00;100097.94;5032788;28;20498;-72
2023/06/27 09:39:29;;;;;;;7.40;3.95;;;;;;;31.88;100.00;100099.19;5032402;28;20051;-71
2023/06/27 09:41:54;;;;;;;6.45;3.85;;;;;;;31.75;100.00;100104.22;5032622;28;20029;-72
2023/06/27 09:44:23;;;;;;;7.25;3.92;;;;;;;32.23;100.00;100088.88;5030532;28;20025;-71
2023/06/27 09:50:10;;;;;;;4.80;4.30;;;;;;;30.53;100.00;100030.38;5032268;28;20040;-71
2023/06/27 09:55:59;;;;;;;6.50;3.90;;;;;;;31.52;100.00;100083.97;5032255;28;20033;-71
2023/06/27 09:58:31;;;;;;;4.78;4.28;;;;;;;29.96;100.00;100018.34;5047347;28;20124;-72
2023/06/27 10:01:07;;;;;;;4.55;3.83;;;;;;;31.79;100.00;100073.94;5030927;28;20017;-73
2023/06/27 10:03:36;;;;;;;6.88;3.95;;;;;;;32.38;100.00;100091.53;5031774;28;20408;-71
2023/06/27 10:06:04;;;;;;;5.10;3.92;;;;;;;31.09;100.00;100033.78;5032060;28;20094;-71
2023/06/27 10:08:30;;;;;;;5.20;3.90;;;;;;;31.15;100.00;100039.16;5032274;28;20133;-72
2023/06/27 10:10:57;;;;;;;7.38;3.55;;;;;;;31.34;100.00;100100.97;5031960;28;20053;-72
2023/06/27 10:16:44;;;;;;;3.97;3.40;;;;;;;31.39;100.00;100060.09;5031914;28;20087;-71
2023/06/27 10:19:10;;;;;;;6.75;3.90;;;;;;;31.56;100.00;100090.53;5031741;28;20021;-71
2023/06/27 10:21:36;;;;;;;4.10;3.60;;;;;;;32.43;100.00;100079.44;5030552;28;20043;-72
2023/06/27 10:24:03;;;;;;;7.78;4.00;;;;;;;33.25;100.00;100119.72;5030266;28;20480;-72
2023/06/27 10:26:28;;;;;;;4.43;3.55;;;;;;;31.85;100.00;100118.78;5046879;28;20021;-72
2023/06/27 10:32:16;;;;;;;4.38;3.90;;;;;;;30.88;100.00;100060.66;5031963;28;20418;-72
2023/06/27 10:38:17;;;;;;;10.43;3.78;;;;;;;31.54;100.00;100065.41;5031939;28;20084;-72
2023/06/27 10:41:07;;;;;;;7.88;3.90;;;;;;;31.15;100.00;100117.19;5031708;28;20029;-72
2023/06/27 10:43:36;;;;;;;4.53;3.80;;;;;;;31.30;100.00;100105.78;5030471;28;20034;-72
2023/06/27 10:46:10;;;;;;;7.05;4.50;;;;;;;32.38;100.00;100071.28;5030379;28;20060;-73
2023/06/27 10:48:58;;;;;;;6.35;3.92;;;;;;;30.52;100.00;100068.16;5046977;28;20037;-72
2023/06/27 10:54:45;;;;;;;4.10;3.70;;;;;;;31.45;100.00;100109.34;5031886;28;20110;-72
2023/06/27 11:00:33;;;;;;;4.43;4.00;;;;;;;32.70;100.00;100112.28;5031843;28;20076;-71
2023/06/27 11:03:03;;;;;;;6.05;3.92;;;;;;;31.53;100.00;100103.22;5031756;28;20119;-71
2023/06/27 11:05:45;;;;;;;8.02;4.13;;;;;;;32.86;100.00;100106.81;5035476;28;20029;-71
2023/06/27 11:08:13;;;;;;;4.35;3.95;;;;;;;31.66;100.00;100107.88;5035123;28;20017;-71
2023/06/27 11:10:49;;;;;;;9.77;3.58;;;;;;;31.10;100.00;100109.81;5035165;28;20060;-71
2023/06/27 11:13:22;;;;;;;5.05;3.92;;;;;;;29.91;100.00;100050.31;5033652;28;20026;-71
2023/06/27 11:19:09;;;;;;;7.20;3.78;;;;;;;30.80;100.00;100081.69;5035460;28;20125;-72
2023/06/27 11:21:37;;;;;;;4.05;3.63;;;;;;;31.82;100.00;100057.78;5039075;28;20131;-72
2023/06/27 11:24:02;;;;;;;5.57;3.70;;;;;;;31.70;100.00;100038.16;5055236;28;20017;-72
2023/06/27 11:26:28;;;;;;;6.05;3.97;;;;;;;32.22;100.00;100100.41;5054530;28;20395;-72
2023/06/27 11:32:15;;;;;;;4.35;3.75;;;;;;;30.67;100.00;100086.63;5055083;28;20044;-73
2023/06/27 11:34:42;;;;;;;5.43;4.00;;;;;;;30.86;100.00;100080.22;5053260;28;20387;-73
2023/06/27 11:37:10;;;;;;;6.72;3.97;;;;;;;30.40;100.00;100022.22;5054590;28;20149;-73
2023/06/27 11:39:36;;;;;;;5.45;3.95;;;;;;;30.01;100.00;100099.97;5052942;28;20494;-73
2023/06/27 11:42:01;;;;;;;5.68;3.85;;;;;;;30.83;100.00;100088.38;5036753;28;20025;-73
2023/06/27 11:44:31;;;;;;;5.78;4.43;;;;;;;30.90;100.00;100044.72;5053203;28;20078;-73
2023/06/27 11:46:57;;;;;;;5.47;4.13;;;;;;;30.59;100.00;100011.31;5054616;28;20025;-73
2023/06/27 11:52:46;;;;;;;;;;;;;;;30.55;100.00;100078.28;5055293;28;20040;-74
2023/06/27 11:55:12;;;;;;;4.70;3.90;;;;;;;30.08;100.00;100063.41;5054456;28;19912;-73
2023/06/27 11:57:47;;;;;;;8.00;4.50;;;;;;;30.74;100.00;100075.28;5036109;28;20102;-73
2023/06/27 12:00:14;;;;;;;6.97;4.28;;;;;;;30.88;100.00;100016.00;5054825;28;20106;-73
2023/06/27 12:02:40;;;;;;;8.05;4.30;;;;;;;31.12;100.00;100052.63;5052095;28;20029;-73
2023/06/27 12:05:16;;;;;;;5.88;4.00;;;;;;;31.31;100.00;100062.72;5053871;28;20162;-73
2023/06/27 12:07:54;;;;;;;5.80;4.20;;;;;;;32.13;100.00;100003.28;5054404;28;20060;-73
2023/06/27 12:13:42;;;;;;;5.75;4.03;;;;;;;31.08;100.00;100027.69;5053777;28;20454;-73
2023/06/27 12:16:25;;;;;;;5.55;3.95;;;;;;;30.31;100.00;99985.66;5053791;28;20033;-75
2023/06/27 12:18:50;;;;;;;5.75;3.97;;;;;;;30.77;100.00;100043.44;5053973;28;20051;-73
2023/06/27 12:24:58;;;;;;;4.55;3.75;;;;;;;31.91;100.00;100041.75;5045733;28;20428;-72
2023/06/27 12:27:23;;;;;;;4.13;3.50;;;;;;;32.28;100.00;99975.94;5035415;28;20499;-72
2023/06/27 12:29:49;;;;;;;4.10;3.70;;;;;;;32.82;100.00;99980.91;5053459;28;20040;-72
2023/06/27 12:32:14;;;;;;;3.90;3.60;;;;;;;33.02;100.00;99960.88;5053708;28;20035;-74
2023/06/27 12:34:40;;;;;;;4.07;3.60;;;;;;;32.07;100.00;99999.53;5053809;28;20116;-72
2023/06/27 12:37:05;;;;;;;7.97;4.03;;;;;;;31.73;100.00;100028.13;5053142;28;20032;-72
2023/06/27 12:42:54;;;;;;;4.18;3.75;;;;;;;32.83;100.00;100012.31;5053614;28;20036;-72
2023/06/27 12:45:20;;;;;;;5.72;3.92;;;;;;;32.08;100.00;100000.34;5053499;28;20101;-72
2023/06/27 12:47:47;;;;;;;6.40;3.78;;;;;;;32.92;100.00;100027.00;5053514;28;20112;-72
2023/06/27 12:50:15;;;;;;;7.50;3.95;;;;;;;33.14;100.00;100034.00;5051996;28;20028;-72
2023/06/27 12:56:02;;;;;;;4.18;3.72;;;;;;;33.46;100.00;100016.88;5053153;28;20047;-74
2023/06/27 12:58:29;;;;;;;5.97;3.72;;;;;;;33.28;100.00;99975.13;5052877;28;20017;-74
2023/06/27 13:00:56;;;;;;;5.20;3.55;;;;;;;32.50;100.00;99991.84;5053351;28;20109;-72
2023/06/27 13:03:26;;;;;;;11.30;4.20;;;;;;;32.88;100.00;99990.69;5053120;28;20031;-72
2023/06/27 13:05:52;;;;;;;4.20;3.40;;;;;;;32.00;100.00;99934.63;5050282;28;20033;-72
2023/06/27 13:08:17;;;;;;;3.75;3.35;;;;;;;32.78;100.00;99943.56;5053012;28;20162;-72
2023/06/27 13:10:44;;;;;;;4.03;3.67;;;;;;;33.12;100.00;99990.38;5052993;28;20029;-72
2023/06/27 13:13:09;;;;;;;6.82;3.60;;;;;;;33.54;100.00;100008.03;5052661;28;20021;-72
2023/06/27 13:18:56;;;;;;;5.32;4.18;;;;;;;32.71;100.00;100011.16;5053102;28;20031;-74
2023/06/27 13:24:44;;;;;;;6.22;3.50;;;;;;;30.53;100.00;99970.00;5052035;28;20198;-73
2023/06/27 13:27:09;;;;;;;6.57;3.92;;;;;;;31.36;100.00;100015.69;5051011;28;20033;-72
2023/06/27 13:29:35;;;;;;;4.78;3.75;;;;;;;31.57;100.00;100001.94;5060682;28;20503;-73
2023/06/27 13:32:01;;;;;;;3.75;3.40;;;;;;;31.89;100.00;99999.00;5065157;28;20151;-72
2023/06/27 13:34:26;;;;;;;4.10;3.65;;;;;;;31.40;100.00;99947.84;5056975;28;20067;-72
2023/06/27 13:36:51;;;;;;;4.65;3.78;;;;;;;31.46;100.00;100015.50;5050450;28;20056;-72
2023/06/27 13:39:19;;;;;;;4.35;3.75;;;;;;;31.40;100.00;99946.03;5052127;28;20056;-72
2023/06/27 13:41:44;;;;;;;5.50;4.18;;;;;;;31.07;100.00;99920.97;5050989;28;20029;-72
2023/06/27 13:47:32;;;;;;;6.93;4.10;;;;;;;31.89;100.00;100001.63;5052672;28;20032;-74
2023/06/27 13:53:20;;;;;;;4.25;3.50;;;;;;;32.69;100.00;99957.84;5052464;28;20043;-72
2023/06/27 13:55:45;;;;;;;5.40;3.72;;;;;;;32.89;100.00;99960.69;5052226;28;20028;-73
2023/06/27 13:58:12;;;;;;;6.38;3.55;;;;;;;32.27;100.00;99903.22;5034357;28;20036;-73
2023/06/27 14:00:37;;;;;;;5.35;3.58;;;;;;;31.85;100.00;99945.13;5052358;28;20024;-72
2023/06/27 14:06:25;;;;;;;4.57;3.65;;;;;;;30.48;100.00;99946.06;5052708;28;20059;-73
2023/06/27 14:08:51;;;;;;;5.25;3.83;;;;;;;30.53;100.00;99891.25;5050763;28;20021;-73
2023/06/27 14:11:18;;;;;;;4.60;3.60;;;;;;;30.23;100.00;99935.81;5051940;28;20431;-72
2023/06/27 14:13:45;;;;;;;4.72;3.80;;;;;;;30.73;100.00;99950.22;5050646;28;20372;-73
2023/06/27 14:16:13;;;;;;;4.95;3.75;;;;;;;30.66;100.00;99904.59;5050820;28;20082;-72
2023/06/27 14:18:39;;;;;;;5.07;3.83;;;;;;;30.93;100.00;99897.25;5050099;28;20037;-73
2023/06/27 14:21:10;;;;;;;4.10;3.58;;;;;;;31.20;100.00;99973.75;5050031;28;20469;-72
2023/06/27 14:23:37;;;;;;;4.45;3.65;;;;;;;31.24;100.00;99942.66;5051927;28;20029;-73
2023/06/27 14:29:23;;;;;;;5.60;3.83;;;;;;;31.15;100.00;99909.56;5052183;28;20036;-72
2023/06/27 14:35:10;;;;;;;9.80;4.10;;;;;;;31.39;100.00;99893.63;5051932;28;20098;-72
2023/06/27 14:37:36;;;;;;;4.57;3.80;;;;;;;32.08;100.00;99938.00;5051382;28;20458;-71
2023/06/27 14:40:01;;;;;;;5.22;4.13;;;;;;;31.83;100.00;99881.34;5055628;28;20032;-72
2023/06/27 14:42:28;;;;;;;4.88;3.70;;;;;;;31.38;100.00;99929.63;5055429;28;20395;-71
2023/06/27 14:48:15;;;;;;;;;;;;;;;31.35;100.00;99939.63;5056717;28;20036;-73
2023/06/27 14:50:41;;;;;;;4.38;3.90;;;;;;;31.78;100.00;99878.44;5055144;28;19904;-73
2023/06/27 14:53:07;;;;;;;5.63;4.03;;;;;;;31.60;100.00;99884.06;5056205;28;20434;-75
2023/06/27 14:55:32;;;;;;;4.28;3.30;;;;;;;32.11;100.00;99869.19;5056184;28;20029;-75
2023/06/27 14:57:58;;;;;;;5.18;3.83;;;;;;;31.38;100.00;99934.03;5055190;28;20078;-73
2023/06/27 15:03:45;;;;;;;4.57;4.13;;;;;;;31.33;100.00;99923.22;5036243;28;20041;-77
2023/06/27 15:06:11;;;;;;;4.20;3.80;;;;;;;31.72;100.00;99888.84;5036036;28;20026;-74
2023/06/27 15:08:36;;;;;;;4.75;4.03;;;;;;;31.37;100.00;99887.69;5018208;28;20033;-75
2023/06/27 15:11:02;;;;;;;4.00;3.58;;;;;;;31.70;100.00;99875.91;5017408;28;20403;-75
2023/06/27 15:16:48;;;;;;;3.92;3.53;;;;;;;31.80;100.00;99858.03;5036060;28;20088;-73
2023/06/27 15:19:14;;;;;;;6.35;4.05;;;;;;;32.04;100.00;99897.25;5035758;28;20515;-74